sensor_id;sensor_type;location;lat;lon;timestamp;pressure;altitude;pressure_sealevel;temperature;humidity
22206;BME280;11272;50.104;8.754;2023-04-01T00:00:03;98875.34;;;11.26;79.61
22206;BME280;11272;50.104;8.754;2023-04-01T00:02:37;98873.69;;;11.24;79.59
22206;BME280;11272;50.104;8.754;2023-04-01T00:05:03;98879.00;;;11.24;78.87
22206;BME280;11272;50.104;8.754;2023-04-01T00:07:31;98870.22;;;11.22;79.63
22206;BME280;11272;50.104;8.754;2023-04-01T00:09:58;98874.53;;;11.24;78.83
22206;BME280;11272;50.104;8.754;2023-04-01T00:12:24;98863.97;;;11.23;79.18
22206;BME280;11272;50.104;8.754;2023-04-01T00:14:50;98866.63;;;11.23;79.62
22206;BME280;11272;50.104;8.754;2023-04-01T00:17:16;98866.63;;;11.23;79.49
22206;BME280;11272;50.104;8.754;2023-04-01T00:19:42;98868.38;;;11.24;78.94
22206;BME280;11272;50.104;8.754;2023-04-01T00:22:09;98863.97;;;11.23;79.06
22206;BME280;11272;50.104;8.754;2023-04-01T00:24:37;98866.50;;;11.26;78.65
22206;BME280;11272;50.104;8.754;2023-04-01T00:27:03;98864.78;;;11.25;78.52
22206;BME280;11272;50.104;8.754;2023-04-01T00:29:30;98877.13;;;11.26;78.52
22206;BME280;11272;50.104;8.754;2023-04-01T00:31:57;98863.84;;;11.26;77.97
22206;BME280;11272;50.104;8.754;2023-04-01T00:34:23;98864.59;;;11.28;77.69
22206;BME280;11272;50.104;8.754;2023-04-01T00:36:50;98852.28;;;11.27;78.13
22206;BME280;11272;50.104;8.754;2023-04-01T00:39:18;98867.25;;;11.28;77.49
22206;BME280;11272;50.104;8.754;2023-04-01T00:41:44;98853.97;;;11.28;77.23
22206;BME280;11272;50.104;8.754;2023-04-01T00:44:30;98864.59;;;11.28;76.93
22206;BME280;11272;50.104;8.754;2023-04-01T00:46:59;98858.53;;;11.26;76.76
22206;BME280;11272;50.104;8.754;2023-04-01T00:49:28;98859.47;;;11.25;77.08
22206;BME280;11272;50.104;8.754;2023-04-01T00:51:57;98855.06;;;11.24;76.82
22206;BME280;11272;50.104;8.754;2023-04-01T00:54:25;98859.53;;;11.23;76.77
22206;BME280;11272;50.104;8.754;2023-04-01T00:57:13;98859.75;;;11.19;76.86
22206;BME280;11272;50.104;8.754;2023-04-01T00:59:44;98861.63;;;11.17;76.93
22206;BME280;11272;50.104;8.754;2023-04-01T01:02:12;98860.00;;;11.14;77.24
22206;BME280;11272;50.104;8.754;2023-04-01T01:04:39;98867.03;;;11.15;76.88
22206;BME280;11272;50.104;8.754;2023-04-01T01:12:51;98863.50;;;11.15;76.50
22206;BME280;11272;50.104;8.754;2023-04-01T01:15:27;98865.25;;;11.16;76.66
22206;BME280;11272;50.104;8.754;2023-04-01T01:18:03;98865.25;;;11.16;76.34
22206;BME280;11272;50.104;8.754;2023-04-01T01:34:55;98863.91;;;11.24;74.96
22206;BME280;11272;50.104;8.754;2023-04-01T01:37:23;98872.59;;;11.28;75.19
22206;BME280;11272;50.104;8.754;2023-04-01T01:39:55;98876.97;;;11.29;74.77
22206;BME280;11272;50.104;8.754;2023-04-01T01:42:23;98869.78;;;11.31;75.03
22206;BME280;11272;50.104;8.754;2023-04-01T01:44:52;98865.34;;;11.31;74.67
22206;BME280;11272;50.104;8.754;2023-04-01T01:47:20;98873.22;;;11.33;74.73
22206;BME280;11272;50.104;8.754;2023-04-01T01:49:47;98866.09;;;11.33;74.32
22206;BME280;11272;50.104;8.754;2023-04-01T01:52:16;98871.50;;;11.32;74.04
22206;BME280;11272;50.104;8.754;2023-04-01T01:54:50;98877.69;;;11.32;74.04
22206;BME280;11272;50.104;8.754;2023-04-01T01:57:19;98877.59;;;11.34;73.50
22206;BME280;11272;50.104;8.754;2023-04-01T01:59:52;98876.66;;;11.35;73.19
22206;BME280;11272;50.104;8.754;2023-04-01T02:02:25;98870.50;;;11.34;73.86
22206;BME280;11272;50.104;8.754;2023-04-01T02:04:52;98871.34;;;11.35;73.71
22206;BME280;11272;50.104;8.754;2023-04-01T02:07:26;98866.03;;;11.35;73.27
22206;BME280;11272;50.104;8.754;2023-04-01T02:09:54;98866.03;;;11.35;73.51
22206;BME280;11272;50.104;8.754;2023-04-01T02:12:22;98887.22;;;11.36;73.27
22206;BME280;11272;50.104;8.754;2023-04-01T02:14:55;98864.00;;;11.40;72.32
22206;BME280;11272;50.104;8.754;2023-04-01T02:17:26;98868.47;;;11.39;72.42
22206;BME280;11272;50.104;8.754;2023-04-01T02:20:03;98874.63;;;11.40;72.13
22206;BME280;11272;50.104;8.754;2023-04-01T02:22:38;98881.69;;;11.41;71.87
22206;BME280;11272;50.104;8.754;2023-04-01T02:25:11;98867.59;;;11.39;72.32
22206;BME280;11272;50.104;8.754;2023-04-01T02:27:38;98868.53;;;11.38;72.52
22206;BME280;11272;50.104;8.754;2023-04-01T02:30:06;98880.97;;;11.37;72.51
22206;BME280;11272;50.104;8.754;2023-04-01T02:32:33;98880.88;;;11.39;71.99
22206;BME280;11272;50.104;8.754;2023-04-01T02:35:01;98872.03;;;11.38;72.20
22206;BME280;11272;50.104;8.754;2023-04-01T02:37:31;98873.84;;;11.38;72.23
22206;BME280;11272;50.104;8.754;2023-04-01T02:40:00;98880.81;;;11.40;72.29
22206;BME280;11272;50.104;8.754;2023-04-01T02:42:27;98879.16;;;11.38;72.51
22206;BME280;11272;50.104;8.754;2023-04-01T02:44:52;98872.03;;;11.38;72.31
22206;BME280;11272;50.104;8.754;2023-04-01T02:47:19;98865.88;;;11.38;72.22
22206;BME280;11272;50.104;8.754;2023-04-01T02:49:44;98879.16;;;11.38;72.33
22206;BME280;11272;50.104;8.754;2023-04-01T02:52:10;98868.53;;;11.38;72.02
22206;BME280;11272;50.104;8.754;2023-04-01T02:54:36;98871.19;;;11.38;71.94
22206;BME280;11272;50.104;8.754;2023-04-01T02:57:01;98865.09;;;11.36;71.83
22206;BME280;11272;50.104;8.754;2023-04-01T02:59:27;98866.91;;;11.35;72.42
22206;BME280;11272;50.104;8.754;2023-04-01T03:01:53;98872.28;;;11.34;72.17
22206;BME280;11272;50.104;8.754;2023-04-01T03:04:19;98875.88;;;11.33;72.70
22206;BME280;11272;50.104;8.754;2023-04-01T03:06:44;98867.06;;;11.32;72.17
22206;BME280;11272;50.104;8.754;2023-04-01T03:09:10;98868.06;;;11.30;72.71
22206;BME280;11272;50.104;8.754;2023-04-01T03:11:36;98864.53;;;11.29;72.89
22206;BME280;11272;50.104;8.754;2023-04-01T03:14:01;98866.34;;;11.29;72.46
22206;BME280;11272;50.104;8.754;2023-04-01T03:16:27;98877.81;;;11.29;72.84
22206;BME280;11272;50.104;8.754;2023-04-01T03:18:52;98868.22;;;11.27;73.08
22206;BME280;11272;50.104;8.754;2023-04-01T03:21:22;98873.53;;;11.27;73.14
22206;BME280;11272;50.104;8.754;2023-04-01T03:23:49;98875.34;;;11.26;72.70
22206;BME280;11272;50.104;8.754;2023-04-01T03:26:15;98876.19;;;11.27;72.65
22206;BME280;11272;50.104;8.754;2023-04-01T03:28:42;98861.19;;;11.26;72.94
22206;BME280;11272;50.104;8.754;2023-04-01T03:31:09;98868.22;;;11.27;73.10
22206;BME280;11272;50.104;8.754;2023-04-01T03:33:42;98860.41;;;11.24;73.17
22206;BME280;11272;50.104;8.754;2023-04-01T03:36:08;98866.56;;;11.24;73.12
22206;BME280;11272;50.104;8.754;2023-04-01T03:38:34;98863.06;;;11.24;73.19
22206;BME280;11272;50.104;8.754;2023-04-01T03:41:00;98867.50;;;11.23;73.21
22206;BME280;11272;50.104;8.754;2023-04-01T03:43:26;98854.28;;;11.22;73.25
22206;BME280;11272;50.104;8.754;2023-04-01T03:45:52;98857.28;;;11.16;73.28
22206;BME280;11272;50.104;8.754;2023-04-01T03:48:18;98863.81;;;11.09;73.17
22206;BME280;11272;50.104;8.754;2023-04-01T03:50:44;98850.75;;;11.04;73.31
22206;BME280;11272;50.104;8.754;2023-04-01T03:53:10;98864.09;;;11.03;73.51
22206;BME280;11272;50.104;8.754;2023-04-01T03:55:39;98862.38;;;11.02;74.03
22206;BME280;11272;50.104;8.754;2023-04-01T03:58:06;98856.13;;;11.03;74.51
22206;BME280;11272;50.104;8.754;2023-04-01T04:00:35;98859.66;;;11.03;74.68
22206;BME280;11272;50.104;8.754;2023-04-01T04:03:02;98851.63;;;11.05;74.64
22206;BME280;11272;50.104;8.754;2023-04-01T04:05:32;98864.72;;;11.08;74.76
22206;BME280;11272;50.104;8.754;2023-04-01T04:07:57;98860.22;;;11.10;74.27
22206;BME280;11272;50.104;8.754;2023-04-01T04:10:23;98856.53;;;11.12;74.39
22206;BME280;11272;50.104;8.754;2023-04-01T04:12:51;98854.75;;;11.13;74.52
22206;BME280;11272;50.104;8.754;2023-04-01T04:15:18;98851.84;;;11.17;74.02
22206;BME280;11272;50.104;8.754;2023-04-01T04:17:45;98856.25;;;11.18;74.09
22206;BME280;11272;50.104;8.754;2023-04-01T04:20:10;98858.81;;;11.20;74.24
22206;BME280;11272;50.104;8.754;2023-04-01T04:22:36;98854.28;;;11.22;74.12
22206;BME280;11272;50.104;8.754;2023-04-01T04:25:05;98854.94;;;11.27;73.21
22206;BME280;11272;50.104;8.754;2023-04-01T04:27:30;98848.66;;;11.28;73.34
22206;BME280;11272;50.104;8.754;2023-04-01T04:30:06;98850.56;;;11.26;73.18
22206;BME280;11272;50.104;8.754;2023-04-01T04:32:34;98846.97;;;11.27;73.17
22206;BME280;11272;50.104;8.754;2023-04-01T04:34:59;98832.88;;;11.25;73.27
22206;BME280;11272;50.104;8.754;2023-04-01T04:37:25;98843.53;;;11.25;73.30
22206;BME280;11272;50.104;8.754;2023-04-01T04:39:52;98839.06;;;11.25;73.64
22206;BME280;11272;50.104;8.754;2023-04-01T04:42:19;98850.56;;;11.26;73.31
22206;BME280;11272;50.104;8.754;2023-04-01T04:44:45;98844.38;;;11.25;73.44
22206;BME280;11272;50.104;8.754;2023-04-01T04:47:11;98851.41;;;11.26;73.23
22206;BME280;11272;50.104;8.754;2023-04-01T04:49:37;98846.97;;;11.27;73.07
22206;BME280;11272;50.104;8.754;2023-04-01T04:52:07;98846.97;;;11.27;73.16
22206;BME280;11272;50.104;8.754;2023-04-01T04:54:33;98847.03;;;11.25;73.01
22206;BME280;11272;50.104;8.754;2023-04-01T04:57:00;98844.31;;;11.27;73.20
22206;BME280;11272;50.104;8.754;2023-04-01T04:59:30;98861.25;;;11.24;73.48
22206;BME280;11272;50.104;8.754;2023-04-01T05:02:11;98852.59;;;11.21;73.23
22206;BME280;11272;50.104;8.754;2023-04-01T05:04:37;98850.84;;;11.20;73.49
22206;BME280;11272;50.104;8.754;2023-04-01T05:07:04;98866.81;;;11.20;73.51
22206;BME280;11272;50.104;8.754;2023-04-01T05:09:31;98863.34;;;11.18;73.55
22206;BME280;11272;50.104;8.754;2023-04-01T05:11:57;98842.19;;;11.16;73.45
22206;BME280;11272;50.104;8.754;2023-04-01T05:14:25;98847.56;;;11.15;73.59
22206;BME280;11272;50.104;8.754;2023-04-01T05:16:59;98843.25;;;11.12;73.51
22206;BME280;11272;50.104;8.754;2023-04-01T05:19:24;98846.00;;;11.11;73.50
22206;BME280;11272;50.104;8.754;2023-04-01T05:21:51;98845.06;;;11.12;73.71
22206;BME280;11272;50.104;8.754;2023-04-01T05:24:22;98845.84;;;11.14;74.31
22206;BME280;11272;50.104;8.754;2023-04-01T05:26:51;98844.84;;;11.16;73.68
22206;BME280;11272;50.104;8.754;2023-04-01T05:29:17;98833.19;;;11.19;73.77
22206;BME280;11272;50.104;8.754;2023-04-01T05:31:47;98847.28;;;11.21;73.71
22206;BME280;11272;50.104;8.754;2023-04-01T05:34:13;98835.84;;;11.19;73.54
22206;BME280;11272;50.104;8.754;2023-04-01T05:40:01;98842.84;;;11.03;74.22
22206;BME280;11272;50.104;8.754;2023-04-01T05:42:30;98827.94;;;11.00;74.36
22206;BME280;11272;50.104;8.754;2023-04-01T05:44:56;98835.97;;;10.98;74.77
22206;BME280;11272;50.104;8.754;2023-04-01T05:48:00;98844.31;;;10.91;75.06
22206;BME280;11272;50.104;8.754;2023-04-01T05:50:28;98840.59;;;10.76;76.56
22206;BME280;11272;50.104;8.754;2023-04-01T05:52:54;98849.06;;;10.66;77.59
22206;BME280;11272;50.104;8.754;2023-04-01T05:55:20;98849.41;;;10.58;78.88
22206;BME280;11272;50.104;8.754;2023-04-01T05:57:46;98855.22;;;10.47;79.92
22206;BME280;11272;50.104;8.754;2023-04-01T06:00:14;98859.34;;;10.36;81.06
22206;BME280;11272;50.104;8.754;2023-04-01T06:02:40;98854.53;;;10.25;82.67
22206;BME280;11272;50.104;8.754;2023-04-01T06:05:17;98853.78;;;10.22;83.39
22206;BME280;11272;50.104;8.754;2023-04-01T06:07:43;98846.03;;;10.17;84.38
22206;BME280;11272;50.104;8.754;2023-04-01T06:10:18;98850.59;;;10.13;85.26
22206;BME280;11272;50.104;8.754;2023-04-01T06:15:23;98850.72;;;10.10;86.69
22206;BME280;11272;50.104;8.754;2023-04-01T06:20:46;98855.38;;;10.05;88.17
22206;BME280;11272;50.104;8.754;2023-04-01T06:23:48;98868.63;;;10.05;88.84
22206;BME280;11272;50.104;8.754;2023-04-01T06:29:37;98855.47;;;10.04;90.02
22206;BME280;11272;50.104;8.754;2023-04-01T06:50:05;98859.63;;;10.09;92.92
22206;BME280;11272;50.104;8.754;2023-04-01T06:59:00;98853.72;;;10.23;93.68
22206;BME280;11272;50.104;8.754;2023-04-01T07:04:06;98858.69;;;10.31;93.89
22206;BME280;11272;50.104;8.754;2023-04-01T07:06:39;98857.72;;;10.32;93.88
22206;BME280;11272;50.104;8.754;2023-04-01T07:09:12;98848.84;;;10.33;94.57
22206;BME280;11272;50.104;8.754;2023-04-01T07:12:15;98852.16;;;10.38;94.77
22206;BME280;11272;50.104;8.754;2023-04-01T07:15:21;98848.22;;;10.46;94.91
22206;BME280;11272;50.104;8.754;2023-04-01T07:17:53;98858.75;;;10.48;94.11
22206;BME280;11272;50.104;8.754;2023-04-01T07:20:28;98858.84;;;10.46;94.20
22206;BME280;11272;50.104;8.754;2023-04-01T07:22:59;98859.69;;;10.47;94.19
22206;BME280;11272;50.104;8.754;2023-04-01T07:25:41;98857.06;;;10.47;94.27
22206;BME280;11272;50.104;8.754;2023-04-01T07:28:38;98861.56;;;10.45;95.00
22206;BME280;11272;50.104;8.754;2023-04-01T07:31:40;98865.94;;;10.46;95.01
22206;BME280;11272;50.104;8.754;2023-04-01T07:36:53;98863.28;;;10.46;94.84
22206;BME280;11272;50.104;8.754;2023-04-01T07:39:30;98872.47;;;10.58;95.98
22206;BME280;11272;50.104;8.754;2023-04-01T07:47:39;98881.56;;;10.89;96.09
22206;BME280;11272;50.104;8.754;2023-04-01T07:53:23;98888.75;;;10.87;95.25
22206;BME280;11272;50.104;8.754;2023-04-01T08:09:02;98905.59;;;11.05;96.69
22206;BME280;11272;50.104;8.754;2023-04-01T08:15:28;98898.91;;;11.15;96.08
22206;BME280;11272;50.104;8.754;2023-04-01T08:21:10;98900.50;;;11.36;97.30
22206;BME280;11272;50.104;8.754;2023-04-01T08:23:40;98903.88;;;11.40;96.65
22206;BME280;11272;50.104;8.754;2023-04-01T08:26:19;98906.28;;;11.45;96.82
22206;BME280;11272;50.104;8.754;2023-04-01T08:31:37;98910.69;;;11.46;95.74
22206;BME280;11272;50.104;8.754;2023-04-01T08:34:17;98910.63;;;11.47;95.96
22206;BME280;11272;50.104;8.754;2023-04-01T08:36:50;98909.06;;;11.43;95.80
22206;BME280;11272;50.104;8.754;2023-04-01T08:39:32;98906.59;;;11.38;95.86
22206;BME280;11272;50.104;8.754;2023-04-01T08:42:41;98912.13;;;11.34;94.98
22206;BME280;11272;50.104;8.754;2023-04-01T08:48:33;98913.69;;;11.21;95.98
22206;BME280;11272;50.104;8.754;2023-04-01T08:59:53;98914.34;;;11.07;97.06
22206;BME280;11272;50.104;8.754;2023-04-01T09:02:58;98920.22;;;11.14;98.72
22206;BME280;11272;50.104;8.754;2023-04-01T09:17:12;98925.94;;;11.23;99.70
22206;BME280;11272;50.104;8.754;2023-04-01T09:33:33;98946.09;;;11.46;100.00
22206;BME280;11272;50.104;8.754;2023-04-01T09:36:28;98940.84;;;11.45;100.00
22206;BME280;11272;50.104;8.754;2023-04-01T09:45:22;98944.41;;;11.62;100.00
22206;BME280;11272;50.104;8.754;2023-04-01T09:48:05;98944.25;;;11.65;100.00
22206;BME280;11272;50.104;8.754;2023-04-01T09:51:05;98945.84;;;11.69;100.00
22206;BME280;11272;50.104;8.754;2023-04-01T09:53:52;98941.06;;;11.76;100.00
22206;BME280;11272;50.104;8.754;2023-04-01T10:08:33;98957.47;;;11.86;100.00
22206;BME280;11272;50.104;8.754;2023-04-01T10:11:22;98947.44;;;11.91;100.00
22206;BME280;11272;50.104;8.754;2023-04-01T10:20:02;98951.97;;;11.89;100.00
22206;BME280;11272;50.104;8.754;2023-04-01T10:22:56;98951.09;;;11.88;100.00
22206;BME280;11272;50.104;8.754;2023-04-01T10:34:14;98960.72;;;12.08;100.00
22206;BME280;11272;50.104;8.754;2023-04-01T10:36:54;98962.69;;;12.04;100.00
22206;BME280;11272;50.104;8.754;2023-04-01T10:43:29;98962.06;;;11.99;100.00
22206;BME280;11272;50.104;8.754;2023-04-01T11:01:22;98960.91;;;12.05;100.00
22206;BME280;11272;50.104;8.754;2023-04-01T11:18:38;98964.09;;;12.11;100.00
22206;BME280;11272;50.104;8.754;2023-04-01T11:24:11;98968.31;;;12.15;100.00
22206;BME280;11272;50.104;8.754;2023-04-01T11:30:19;98967.47;;;12.32;100.00
22206;BME280;11272;50.104;8.754;2023-04-01T11:32:54;98962.56;;;12.40;100.00
22206;BME280;11272;50.104;8.754;2023-04-01T11:35:39;98965.25;;;12.40;100.00
22206;BME280;11272;50.104;8.754;2023-04-01T11:38:33;98967.22;;;12.37;100.00
22206;BME280;11272;50.104;8.754;2023-04-01T11:44:39;98968.22;;;12.34;100.00
22206;BME280;11272;50.104;8.754;2023-04-01T11:47:42;98967.91;;;12.40;100.00
22206;BME280;11272;50.104;8.754;2023-04-01T12:01:14;98983.91;;;12.73;100.00
22206;BME280;11272;50.104;8.754;2023-04-01T12:04:05;98977.31;;;12.80;100.00
22206;BME280;11272;50.104;8.754;2023-04-01T12:14:54;98979.31;;;12.92;100.00
22206;BME280;11272;50.104;8.754;2023-04-01T12:17:34;98983.06;;;12.88;100.00
22206;BME280;11272;50.104;8.754;2023-04-01T12:26:10;98992.34;;;12.81;100.00
22206;BME280;11272;50.104;8.754;2023-04-01T12:34:39;98997.66;;;12.65;100.00
22206;BME280;11272;50.104;8.754;2023-04-01T12:37:20;99001.31;;;12.46;100.00
22206;BME280;11272;50.104;8.754;2023-04-01T12:40:06;98997.13;;;12.42;100.00
22206;BME280;11272;50.104;8.754;2023-04-01T13:02:55;99023.75;;;12.42;100.00
22206;BME280;11272;50.104;8.754;2023-04-01T13:08:43;99032.66;;;12.23;100.00
22206;BME280;11272;50.104;8.754;2023-04-01T13:13:55;99022.00;;;12.23;100.00
22206;BME280;11272;50.104;8.754;2023-04-01T13:16:39;99030.66;;;12.29;100.00
22206;BME280;11272;50.104;8.754;2023-04-01T13:19:19;99028.44;;;12.37;100.00
22206;BME280;11272;50.104;8.754;2023-04-01T13:22:09;99025.47;;;12.43;100.00
22206;BME280;11272;50.104;8.754;2023-04-01T13:24:46;99034.75;;;12.51;100.00
22206;BME280;11272;50.104;8.754;2023-04-01T13:27:23;99032.09;;;12.69;100.00
22206;BME280;11272;50.104;8.754;2023-04-01T13:30:05;99030.16;;;12.88;100.00
22206;BME280;11272;50.104;8.754;2023-04-01T13:35:23;99036.22;;;12.91;100.00
22206;BME280;11272;50.104;8.754;2023-04-01T13:38:08;99040.78;;;13.05;100.00
22206;BME280;11272;50.104;8.754;2023-04-01T13:40:51;99036.13;;;13.41;100.00
22206;BME280;11272;50.104;8.754;2023-04-01T13:43:26;99038.38;;;13.33;100.00
22206;BME280;11272;50.104;8.754;2023-04-01T13:49:23;99039.59;;;13.43;100.00
22206;BME280;11272;50.104;8.754;2023-04-01T13:58:29;99040.88;;;14.59;100.00
22206;BME280;11272;50.104;8.754;2023-04-01T14:07:10;99042.47;;;14.91;100.00
22206;BME280;11272;50.104;8.754;2023-04-01T14:12:36;99051.16;;;15.09;100.00
22206;BME280;11272;50.104;8.754;2023-04-01T14:21:23;99033.91;;;15.00;98.60
22206;BME280;11272;50.104;8.754;2023-04-01T14:31:57;99055.84;;;13.55;99.60
22206;BME280;11272;50.104;8.754;2023-04-01T14:34:53;99054.91;;;13.40;100.00
22206;BME280;11272;50.104;8.754;2023-04-01T14:37:45;99064.69;;;13.24;100.00
22206;BME280;11272;50.104;8.754;2023-04-01T14:40:26;99060.69;;;13.15;100.00
22206;BME280;11272;50.104;8.754;2023-04-01T14:48:50;99070.91;;;12.90;100.00
22206;BME280;11272;50.104;8.754;2023-04-01T14:59:08;99072.94;;;13.02;100.00
22206;BME280;11272;50.104;8.754;2023-04-01T15:01:50;99076.03;;;13.27;100.00
22206;BME280;11272;50.104;8.754;2023-04-01T15:04:44;99088.25;;;13.31;100.00
22206;BME280;11272;50.104;8.754;2023-04-01T15:10:13;99087.19;;;13.67;100.00
22206;BME280;11272;50.104;8.754;2023-04-01T15:18:45;99084.66;;;13.95;100.00
22206;BME280;11272;50.104;8.754;2023-04-01T15:21:30;99090.63;;;13.84;100.00
22206;BME280;11272;50.104;8.754;2023-04-01T15:27:06;99092.06;;;13.59;100.00
22206;BME280;11272;50.104;8.754;2023-04-01T15:32:29;99101.97;;;13.57;100.00
22206;BME280;11272;50.104;8.754;2023-04-01T15:38:02;99115.31;;;13.57;100.00
22206;BME280;11272;50.104;8.754;2023-04-01T15:52:07;99131.16;;;13.60;100.00
22206;BME280;11272;50.104;8.754;2023-04-01T15:55:00;99131.25;;;13.41;98.30
22206;BME280;11272;50.104;8.754;2023-04-01T16:00:28;99136.56;;;13.25;98.62
22206;BME280;11272;50.104;8.754;2023-04-01T16:03:37;99140.50;;;13.18;98.51
22206;BME280;11272;50.104;8.754;2023-04-01T16:19:19;99147.16;;;12.75;98.84
22206;BME280;11272;50.104;8.754;2023-04-01T16:22:32;99154.84;;;12.64;99.06
22206;BME280;11272;50.104;8.754;2023-04-01T16:25:18;99161.09;;;12.63;100.00
22206;BME280;11272;50.104;8.754;2023-04-01T16:36:20;99163.53;;;12.68;100.00
22206;BME280;11272;50.104;8.754;2023-04-01T16:38:55;99170.41;;;12.72;100.00
22206;BME280;11272;50.104;8.754;2023-04-01T16:41:31;99176.78;;;12.69;100.00
22206;BME280;11272;50.104;8.754;2023-04-01T16:44:13;99179.75;;;12.63;100.00
22206;BME280;11272;50.104;8.754;2023-04-01T16:46:46;99179.75;;;12.63;100.00
22206;BME280;11272;50.104;8.754;2023-04-01T16:49:24;99190.41;;;12.63;100.00
22206;BME280;11272;50.104;8.754;2023-04-01T16:54:36;99199.25;;;12.63;100.00
22206;BME280;11272;50.104;8.754;2023-04-01T17:02:47;99202.06;;;12.60;100.00
22206;BME280;11272;50.104;8.754;2023-04-01T17:05:15;99210.91;;;12.61;100.00
22206;BME280;11272;50.104;8.754;2023-04-01T17:10:48;99216.16;;;12.62;100.00
22206;BME280;11272;50.104;8.754;2023-04-01T17:21:15;99226.63;;;12.48;100.00
22206;BME280;11272;50.104;8.754;2023-04-01T17:23:52;99233.75;;;12.48;100.00
22206;BME280;11272;50.104;8.754;2023-04-01T17:27:01;99224.09;;;12.45;100.00
22206;BME280;11272;50.104;8.754;2023-04-01T17:35:22;99240.25;;;12.42;100.00
22206;BME280;11272;50.104;8.754;2023-04-01T17:38:05;99242.09;;;12.40;100.00
22206;BME280;11272;50.104;8.754;2023-04-01T17:40:42;99239.88;;;12.31;100.00
22206;BME280;11272;50.104;8.754;2023-04-01T17:45:53;99248.53;;;12.17;100.00
22206;BME280;11272;50.104;8.754;2023-04-01T17:48:47;99260.34;;;12.12;99.42
22206;BME280;11272;50.104;8.754;2023-04-01T17:51:23;99262.25;;;12.08;99.75
22206;BME280;11272;50.104;8.754;2023-04-01T17:59:35;99281.25;;;12.01;99.37
22206;BME280;11272;50.104;8.754;2023-04-01T18:07:41;99295.53;;;11.79;99.32
22206;BME280;11272;50.104;8.754;2023-04-01T18:21:45;99326.63;;;11.77;99.75
22206;BME280;11272;50.104;8.754;2023-04-01T18:27:36;99346.16;;;11.76;99.16
22206;BME280;11272;50.104;8.754;2023-04-01T18:35:44;99359.34;;;11.79;98.71
22206;BME280;11272;50.104;8.754;2023-04-01T18:41:11;99369.91;;;11.81;98.58
22206;BME280;11272;50.104;8.754;2023-04-01T18:46:33;99379.81;;;11.77;97.87
22206;BME280;11272;50.104;8.754;2023-04-01T18:52:15;99378.09;;;11.76;97.35
22206;BME280;11272;50.104;8.754;2023-04-01T18:57:15;99385.34;;;11.73;97.46
22206;BME280;11272;50.104;8.754;2023-04-01T18:59:51;99387.16;;;11.71;97.10
22206;BME280;11272;50.104;8.754;2023-04-01T19:02:27;99390.69;;;11.71;96.83
22206;BME280;11272;50.104;8.754;2023-04-01T19:07:42;99392.56;;;11.69;96.63
22206;BME280;11272;50.104;8.754;2023-04-01T19:26:48;99419.78;;;11.54;95.69
22206;BME280;11272;50.104;8.754;2023-04-01T19:32:41;99429.06;;;11.44;95.18
22206;BME280;11272;50.104;8.754;2023-04-01T19:35:23;99434.63;;;11.38;95.24
22206;BME280;11272;50.104;8.754;2023-04-01T19:38:08;99434.72;;;11.36;94.89
22206;BME280;11272;50.104;8.754;2023-04-01T19:40:45;99437.47;;;11.33;94.99
22206;BME280;11272;50.104;8.754;2023-04-01T19:49:23;99434.47;;;11.21;94.38
22206;BME280;11272;50.104;8.754;2023-04-01T19:52:00;99440.81;;;11.17;94.08
22206;BME280;11272;50.104;8.754;2023-04-01T19:58:26;99449.16;;;11.08;94.02
22206;BME280;11272;50.104;8.754;2023-04-01T20:01:00;99454.50;;;11.06;94.17
22206;BME280;11272;50.104;8.754;2023-04-01T20:03:34;99454.50;;;11.06;94.18
22206;BME280;11272;50.104;8.754;2023-04-01T20:08:58;99461.69;;;11.04;93.88
22206;BME280;11272;50.104;8.754;2023-04-01T20:14:15;99482.75;;;11.09;93.91
22206;BME280;11272;50.104;8.754;2023-04-01T20:19:44;99488.13;;;11.07;94.37
22206;BME280;11272;50.104;8.754;2023-04-01T20:22:28;99492.53;;;11.08;94.05
22206;BME280;11272;50.104;8.754;2023-04-01T20:24:59;99497.78;;;11.10;93.71
22206;BME280;11272;50.104;8.754;2023-04-01T20:27:32;99499.63;;;11.08;93.56
22206;BME280;11272;50.104;8.754;2023-04-01T20:32:50;99512.03;;;11.07;93.59
22206;BME280;11272;50.104;8.754;2023-04-01T20:35:43;99507.66;;;11.06;93.07
22206;BME280;11272;50.104;8.754;2023-04-01T20:38:21;99506.81;;;11.06;93.21
22206;BME280;11272;50.104;8.754;2023-04-01T20:41:03;99509.38;;;11.07;93.04
22206;BME280;11272;50.104;8.754;2023-04-01T20:43:43;99514.59;;;11.10;93.28
22206;BME280;11272;50.104;8.754;2023-04-01T20:46:19;99519.78;;;11.13;93.17
22206;BME280;11272;50.104;8.754;2023-04-01T20:48:56;99527.75;;;11.13;93.22
22206;BME280;11272;50.104;8.754;2023-04-01T20:51:29;99527.69;;;11.15;93.41
22206;BME280;11272;50.104;8.754;2023-04-01T20:57:29;99532.78;;;11.21;93.23
22206;BME280;11272;50.104;8.754;2023-04-01T21:00:13;99535.44;;;11.21;93.00
22206;BME280;11272;50.104;8.754;2023-04-01T21:02:53;99543.28;;;11.24;93.02
22206;BME280;11272;50.104;8.754;2023-04-01T21:08:32;99548.41;;;11.28;92.74
22206;BME280;11272;50.104;8.754;2023-04-01T21:19:03;99561.38;;;11.37;91.96
22206;BME280;11272;50.104;8.754;2023-04-01T21:29:53;99589.16;;;11.29;91.53
22206;BME280;11272;50.104;8.754;2023-04-01T21:32:36;99585.97;;;11.19;90.58
22206;BME280;11272;50.104;8.754;2023-04-01T21:35:23;99588.84;;;11.13;90.82
22206;BME280;11272;50.104;8.754;2023-04-01T21:38:27;99596.00;;;11.11;91.86
22206;BME280;11272;50.104;8.754;2023-04-01T21:41:24;99599.78;;;11.06;92.09
22206;BME280;11272;50.104;8.754;2023-04-01T22:06:59;99627.22;;;10.81;97.61
22206;BME280;11272;50.104;8.754;2023-04-01T22:09:29;99632.53;;;10.81;98.28
22206;BME280;11272;50.104;8.754;2023-04-01T22:12:11;99628.97;;;10.82;98.32
22206;BME280;11272;50.104;8.754;2023-04-01T22:15:15;99626.31;;;10.82;98.91
22206;BME280;11272;50.104;8.754;2023-04-01T22:20:34;99636.97;;;10.81;99.17
22206;BME280;11272;50.104;8.754;2023-04-01T22:23:20;99641.41;;;10.80;99.62
22206;BME280;11272;50.104;8.754;2023-04-01T22:28:46;99650.28;;;10.79;100.00